< < Back
Terminal Aerodrome Forecast


Current Version              Previous Versions:   1  2  3  4  5  6  7  8  9  

Terminal Aerodrome Forecast

921
FTUS42 KILM 021722
TAFILM
TAF
KILM 021722Z 0218/0318 VRB05KT P6SM SCT050 SCT250
     FM030300 24003KT P6SM FEW070 SCT250
     FM031300 29007KT P6SM SCT060 SCT120 SCT250=

Latest METAR

226
SAUS70 KWBC 030900 RRB
MTRILM
METAR KILM 030853Z AUTO 02007KT 10SM SCT065 24/22 A2995 RMK AO2 SLP142
T02390222 55002


USA.gov is the U.S. government's official web portal to all federal, state and local government web resources and services.